Hellier, Kentucky
Current Conditions -  °F | °C
As of 7:15 PM on Friday 19 Dec 2014 (Local Time) from KPBX Reporting Station
Clear Clear  
Wind Chill: 20°   Ceiling: Unl
Heat Index: 29°   Visibility: 10mi
Dew Point: 23°   Wind: 9mph
Humidity: 78%   Direction: 10°N
Pressure: 30.23"   Gusts: NA
Location:  37.29°N, 82.47°W
Report Text: KPBX 200015Z AUTO 01008KT 10SM CLR M02/M05 A3023 RMK AO2 T10191052
Loading
Personal Weather Stations






























Interactive Weather Map New forecast layout! Learn more

10-Day Weather Forecast

Advertisements
Track Severe Weather on mobile